createdAt,value
2023-05-13T00:00:00.065Z,13.57
2023-05-13T00:01:00.074Z,13.51
2023-05-13T00:02:00.048Z,13.48
2023-05-13T00:03:00.109Z,13.36
2023-05-13T00:04:00.015Z,13.28
2023-05-13T00:05:00.001Z,13.32
2023-05-13T00:06:00.031Z,13.32
2023-05-13T00:06:59.978Z,13.31
2023-05-13T00:07:59.978Z,13.27
2023-05-13T00:08:59.962Z,13.21
2023-05-13T00:09:59.947Z,13.17
2023-05-13T00:10:59.936Z,13.16
2023-05-13T00:11:59.940Z,13.13
2023-05-13T00:12:59.913Z,13.22
2023-05-13T00:13:59.913Z,13.19
2023-05-13T00:14:59.893Z,13.19
2023-05-13T00:15:59.901Z,13.14
2023-05-13T00:16:59.902Z,13.09
2023-05-13T00:17:59.935Z,13.07
2023-05-13T00:18:59.945Z,13.06
2023-05-13T00:19:59.844Z,13.07
2023-05-13T00:20:59.831Z,13.04
2023-05-13T00:21:59.830Z,13.03
2023-05-13T00:22:59.861Z,13.01
2023-05-13T00:23:59.875Z,13.04
2023-05-13T00:24:59.919Z,13.07
2023-05-13T00:25:59.882Z,13.06
2023-05-13T00:26:59.867Z,13.04
2023-05-13T00:27:59.867Z,12.98
2023-05-13T00:28:59.886Z,12.98
2023-05-13T00:29:59.920Z,12.99
2023-05-13T00:30:59.778Z,13.01
2023-05-13T00:31:59.778Z,12.99
2023-05-13T00:32:59.748Z,13.03
2023-05-13T00:33:59.697Z,12.98
2023-05-13T00:34:59.706Z,12.95
2023-05-13T00:35:59.667Z,12.91
2023-05-13T00:36:59.654Z,12.88
2023-05-13T00:37:59.652Z,12.88
2023-05-13T00:38:59.633Z,12.92
2023-05-13T00:39:59.633Z,12.92
2023-05-13T00:40:59.610Z,12.89
2023-05-13T00:41:59.633Z,12.88
2023-05-13T00:42:59.595Z,12.89
2023-05-13T00:43:59.579Z,12.87
2023-05-13T00:44:59.600Z,12.94
2023-05-13T00:45:59.600Z,12.89
2023-05-13T00:46:59.544Z,12.84
2023-05-13T00:47:59.586Z,12.77
2023-05-13T00:48:59.551Z,12.71
2023-05-13T00:49:59.533Z,12.66
2023-05-13T00:50:59.513Z,12.63
2023-05-13T00:51:59.492Z,12.74
2023-05-13T00:52:59.480Z,12.87
2023-05-13T00:53:59.472Z,12.87
2023-05-13T00:54:59.458Z,12.87
2023-05-13T00:55:59.456Z,12.84
2023-05-13T00:56:59.474Z,12.76
2023-05-13T00:57:59.426Z,12.74
2023-05-13T00:58:59.418Z,12.67
2023-05-13T00:59:59.404Z,12.63
2023-05-13T01:00:59.419Z,12.62
2023-05-13T01:01:59.392Z,12.61
2023-05-13T01:02:59.502Z,12.59
2023-05-13T01:03:59.358Z,12.62
2023-05-13T01:04:59.380Z,12.67
2023-05-13T01:05:59.349Z,12.70
2023-05-13T01:06:59.326Z,12.69
2023-05-13T01:07:59.319Z,12.70
2023-05-13T01:08:59.303Z,12.69
2023-05-13T01:09:59.292Z,12.69
2023-05-13T01:10:59.276Z,12.61
2023-05-13T01:11:59.268Z,12.59
2023-05-13T01:12:59.254Z,12.56
2023-05-13T01:13:59.244Z,12.51
2023-05-13T01:14:59.235Z,12.48
2023-05-13T01:15:59.226Z,12.52
2023-05-13T01:16:59.375Z,12.49
2023-05-13T01:17:59.228Z,12.48
2023-05-13T01:18:59.260Z,12.48
2023-05-13T01:19:59.177Z,12.48
2023-05-13T01:20:59.191Z,12.41
2023-05-13T01:21:59.153Z,12.34
2023-05-13T01:22:59.145Z,12.26
2023-05-13T01:23:59.191Z,12.26
2023-05-13T01:24:59.119Z,12.25
2023-05-13T01:25:59.114Z,12.26
2023-05-13T01:26:59.096Z,12.25
2023-05-13T01:27:59.096Z,12.23
2023-05-13T01:28:59.112Z,12.21
2023-05-13T01:29:59.064Z,12.23
2023-05-13T01:30:59.089Z,12.21
2023-05-13T01:31:59.059Z,12.16
2023-05-13T01:32:59.087Z,12.15
2023-05-13T01:33:59.023Z,12.15
2023-05-13T01:34:59.005Z,12.12
2023-05-13T01:35:58.998Z,12.15
2023-05-13T01:36:59.009Z,12.11
2023-05-13T01:37:58.972Z,12.11
2023-05-13T01:38:58.962Z,12.11
2023-05-13T01:39:58.947Z,12.13
2023-05-13T01:40:58.939Z,12.08
2023-05-13T01:41:58.937Z,12.07
2023-05-13T01:42:58.913Z,12.03
2023-05-13T01:43:58.905Z,11.94
2023-05-13T01:44:58.942Z,11.85
2023-05-13T01:45:58.895Z,11.85
2023-05-13T01:46:58.952Z,11.84
2023-05-13T01:47:58.924Z,11.87
2023-05-13T01:48:58.864Z,11.87
2023-05-13T01:49:58.843Z,11.87
2023-05-13T01:50:58.827Z,11.85
2023-05-13T01:51:58.815Z,11.84
2023-05-13T01:52:58.836Z,11.85
2023-05-13T01:53:58.798Z,11.84
2023-05-13T01:54:58.779Z,11.85
2023-05-13T01:55:58.764Z,11.84
2023-05-13T01:56:58.760Z,11.85
2023-05-13T01:57:58.754Z,11.87
2023-05-13T01:58:58.733Z,11.94
2023-05-13T01:59:58.722Z,12.01
2023-05-13T02:00:58.716Z,12.01
2023-05-13T02:01:58.725Z,12.00
2023-05-13T02:02:58.777Z,12.03
2023-05-13T02:03:58.759Z,11.97
2023-05-13T02:04:58.674Z,11.90
2023-05-13T02:05:58.676Z,11.85
2023-05-13T02:06:58.647Z,11.81
2023-05-13T02:07:58.628Z,11.84
2023-05-13T02:08:58.640Z,11.85
2023-05-13T02:09:58.612Z,11.84
2023-05-13T02:10:58.615Z,11.78
2023-05-13T02:11:58.590Z,11.77
2023-05-13T02:12:58.580Z,11.75
2023-05-13T02:13:58.564Z,11.70
2023-05-13T02:14:58.553Z,11.64
2023-05-13T02:15:58.617Z,11.63
2023-05-13T02:16:58.567Z,11.60
2023-05-13T02:17:58.546Z,11.56
2023-05-13T02:18:58.575Z,11.59
2023-05-13T02:19:58.510Z,11.59
2023-05-13T02:20:58.492Z,11.57
2023-05-13T02:21:58.472Z,11.56
2023-05-13T02:22:58.472Z,11.54
2023-05-13T02:23:58.468Z,11.57
2023-05-13T02:24:58.472Z,11.54
2023-05-13T02:25:58.429Z,11.54
2023-05-13T02:26:58.422Z,11.48
2023-05-13T02:27:58.427Z,11.45
2023-05-13T02:28:58.399Z,11.41
2023-05-13T02:29:58.384Z,11.44
2023-05-13T02:30:58.386Z,11.41
2023-05-13T02:31:58.409Z,11.42
2023-05-13T02:32:58.380Z,11.39
2023-05-13T02:33:58.349Z,11.38
2023-05-13T02:34:58.335Z,11.36
2023-05-13T02:35:58.317Z,11.36
2023-05-13T02:36:58.309Z,11.42
2023-05-13T02:37:58.331Z,11.54
2023-05-13T02:38:58.287Z,11.62
2023-05-13T02:39:58.274Z,11.63
2023-05-13T02:40:58.288Z,11.56
2023-05-13T02:41:58.252Z,11.54
2023-05-13T02:42:58.240Z,11.48
2023-05-13T02:43:58.230Z,11.48
2023-05-13T02:44:58.220Z,11.48
2023-05-13T02:45:58.215Z,11.46
2023-05-13T02:46:58.197Z,11.44
2023-05-13T02:47:58.218Z,11.42
2023-05-13T02:48:58.179Z,11.36
2023-05-13T02:49:58.184Z,11.31
2023-05-13T02:50:58.151Z,11.27
2023-05-13T02:51:58.136Z,11.28
2023-05-13T02:52:58.133Z,11.23
2023-05-13T02:53:58.122Z,11.30
2023-05-13T02:54:58.200Z,11.30
2023-05-13T02:55:58.115Z,11.31
2023-05-13T02:56:58.109Z,11.26
2023-05-13T02:57:58.073Z,11.23
2023-05-13T02:58:58.209Z,11.26
2023-05-13T02:59:58.052Z,11.27
2023-05-13T03:00:58.059Z,11.30
2023-05-13T03:01:58.033Z,11.30
2023-05-13T03:02:58.153Z,11.27
2023-05-13T03:03:58.007Z,11.26
2023-05-13T03:04:58.002Z,11.21
2023-05-13T03:05:57.980Z,11.17
2023-05-13T03:06:57.974Z,11.08
2023-05-13T03:07:57.969Z,11.08
2023-05-13T03:08:57.953Z,11.05
2023-05-13T03:09:57.942Z,11.05
2023-05-13T03:10:57.929Z,11.06
2023-05-13T03:11:57.916Z,11.05
2023-05-13T03:12:57.926Z,11.08
2023-05-13T03:13:57.895Z,11.02
2023-05-13T03:14:57.882Z,10.98
2023-05-13T03:15:57.891Z,10.95
2023-05-13T03:16:57.860Z,10.98
2023-05-13T03:17:57.929Z,10.93
2023-05-13T03:18:57.922Z,10.99
2023-05-13T03:19:57.831Z,11.02
2023-05-13T03:20:57.812Z,11.05
2023-05-13T03:21:57.802Z,11.08
2023-05-13T03:22:57.792Z,11.12
2023-05-13T03:23:57.778Z,11.09
2023-05-13T03:24:57.772Z,11.12
2023-05-13T03:25:57.755Z,11.12
2023-05-13T03:26:57.749Z,11.13
2023-05-13T03:27:57.739Z,11.20
2023-05-13T03:28:57.751Z,11.20
2023-05-13T03:29:57.713Z,11.19
2023-05-13T03:30:57.710Z,11.19
2023-05-13T03:31:57.684Z,11.12
2023-05-13T03:32:57.698Z,11.12
2023-05-13T03:33:57.662Z,11.16
2023-05-13T03:34:57.656Z,11.16
2023-05-13T03:35:57.651Z,11.19
2023-05-13T03:36:57.663Z,11.16
2023-05-13T03:37:57.641Z,11.11
2023-05-13T03:38:57.615Z,11.26
2023-05-13T03:39:57.597Z,11.26
2023-05-13T03:40:57.588Z,11.23
2023-05-13T03:41:57.572Z,11.19
2023-05-13T03:42:57.565Z,11.16
2023-05-13T03:43:57.759Z,11.12
2023-05-13T03:44:57.564Z,11.08
2023-05-13T03:45:57.534Z,11.03
2023-05-13T03:46:57.534Z,11.01
2023-05-13T03:47:57.732Z,11.05
2023-05-13T03:48:57.495Z,11.06
2023-05-13T03:49:57.501Z,11.09
2023-05-13T03:50:57.476Z,11.06
2023-05-13T03:51:57.461Z,11.12
2023-05-13T03:52:57.473Z,11.13
2023-05-13T03:53:57.437Z,11.16
2023-05-13T03:54:57.433Z,11.12
2023-05-13T03:55:57.421Z,11.11
2023-05-13T03:56:57.408Z,11.11
2023-05-13T03:57:57.392Z,11.16
2023-05-13T03:58:57.389Z,11.13
2023-05-13T03:59:57.369Z,11.12
2023-05-13T04:00:57.390Z,11.09
2023-05-13T04:01:57.418Z,11.06
2023-05-13T04:02:57.428Z,11.08
2023-05-13T04:03:57.440Z,11.08
2023-05-13T04:04:57.346Z,11.12
2023-05-13T04:05:57.303Z,11.13
2023-05-13T04:06:57.296Z,11.26
2023-05-13T04:07:57.284Z,11.28
2023-05-13T04:08:57.277Z,11.30
2023-05-13T04:09:57.260Z,11.24
2023-05-13T04:10:57.253Z,11.20
2023-05-13T04:11:57.241Z,11.19
2023-05-13T04:12:57.233Z,11.17
2023-05-13T04:13:57.217Z,11.17
2023-05-13T04:14:57.203Z,11.21
2023-05-13T04:15:57.190Z,11.19
2023-05-13T04:16:57.270Z,11.12
2023-05-13T04:17:57.242Z,11.13
2023-05-13T04:18:57.210Z,11.13
2023-05-13T04:19:57.150Z,11.11
2023-05-13T04:20:57.138Z,11.09
2023-05-13T04:21:57.125Z,11.12
2023-05-13T04:22:57.121Z,11.19
2023-05-13T04:23:57.175Z,11.30
2023-05-13T04:24:57.099Z,11.36
2023-05-13T04:25:57.086Z,11.49
2023-05-13T04:26:58.546Z,11.54
2023-05-13T04:27:57.071Z,11.51
2023-05-13T04:28:57.062Z,11.49
2023-05-13T04:29:57.056Z,11.46
2023-05-13T04:30:57.024Z,11.49
2023-05-13T04:31:57.046Z,11.57
2023-05-13T04:32:57.082Z,11.67
2023-05-13T04:33:56.996Z,11.75
2023-05-13T04:34:56.980Z,11.97
2023-05-13T04:35:56.976Z,12.15
2023-05-13T04:36:57.056Z,12.30
2023-05-13T04:37:56.943Z,12.43
2023-05-13T04:38:56.933Z,12.52
2023-05-13T04:39:56.938Z,12.67
2023-05-13T04:40:56.910Z,12.76
2023-05-13T04:41:56.901Z,12.81
2023-05-13T04:42:56.892Z,12.94
2023-05-13T04:43:56.876Z,13.06
2023-05-13T04:44:56.872Z,13.17
2023-05-13T04:45:56.874Z,13.25
2023-05-13T04:46:56.852Z,13.27
2023-05-13T04:47:58.474Z,13.41
2023-05-13T04:48:56.870Z,13.35
2023-05-13T04:49:56.809Z,13.44
2023-05-13T04:50:56.835Z,13.51
2023-05-13T04:51:56.791Z,13.61
2023-05-13T04:52:56.827Z,13.73
2023-05-13T04:53:56.769Z,13.79
2023-05-13T04:54:56.756Z,13.91
2023-05-13T04:55:56.757Z,14.01
2023-05-13T04:56:56.730Z,14.12
2023-05-13T04:57:56.726Z,14.20
2023-05-13T04:58:56.746Z,14.21
2023-05-13T04:59:56.741Z,14.30
2023-05-13T05:00:56.693Z,14.27
2023-05-13T05:01:56.709Z,14.26
2023-05-13T05:02:56.724Z,14.38
2023-05-13T05:03:56.661Z,14.45
2023-05-13T05:04:56.707Z,14.44
2023-05-13T05:05:56.629Z,14.39
2023-05-13T05:06:56.617Z,14.44
2023-05-13T05:07:56.604Z,14.52
2023-05-13T05:08:56.597Z,14.45
2023-05-13T05:09:56.599Z,14.56
2023-05-13T05:10:56.671Z,14.60
2023-05-13T05:11:56.564Z,14.57
2023-05-13T05:12:56.553Z,14.66
2023-05-13T05:13:56.542Z,14.79
2023-05-13T05:14:56.532Z,14.87
2023-05-13T05:15:56.519Z,14.95
2023-05-13T05:16:56.550Z,14.91
2023-05-13T05:17:56.638Z,14.98
2023-05-13T05:18:56.598Z,15.07
2023-05-13T05:19:56.486Z,15.12
2023-05-13T05:20:56.489Z,15.19
2023-05-13T05:21:56.487Z,15.23
2023-05-13T05:22:57.014Z,15.13
2023-05-13T05:23:56.447Z,15.13
2023-05-13T05:24:56.427Z,15.04
2023-05-13T05:26:07.877Z,15.07
2023-05-13T05:26:57.437Z,15.19
2023-05-13T05:27:56.388Z,15.31
2023-05-13T05:28:56.382Z,15.30
2023-05-13T05:29:56.376Z,15.48
2023-05-13T05:30:56.352Z,15.73
2023-05-13T05:31:56.464Z,16.07
2023-05-13T05:32:56.444Z,16.34
2023-05-13T05:33:56.336Z,16.67
2023-05-13T05:34:56.398Z,16.78
2023-05-13T05:35:56.304Z,-39.99
2023-05-13T05:36:56.314Z,17.22
2023-05-13T05:37:56.271Z,17.27
2023-05-13T05:38:56.268Z,17.38
2023-05-13T05:39:56.253Z,17.15
2023-05-13T05:40:56.259Z,17.32
2023-05-13T05:41:56.231Z,17.10
2023-05-13T05:42:56.217Z,16.96
2023-05-13T05:43:56.224Z,16.95
2023-05-13T05:44:56.202Z,16.90
2023-05-13T05:45:56.193Z,16.90
2023-05-13T05:46:56.292Z,16.82
2023-05-13T05:47:56.194Z,16.90
2023-05-13T05:48:56.153Z,16.99
2023-05-13T05:49:56.144Z,17.14
2023-05-13T05:50:56.128Z,17.21
2023-05-13T05:51:56.125Z,17.27
2023-05-13T05:52:56.128Z,17.20
2023-05-13T05:53:56.098Z,17.18
2023-05-13T05:54:56.085Z,17.27
2023-05-13T05:55:56.075Z,17.18
2023-05-13T05:56:56.060Z,17.10
2023-05-13T05:57:56.051Z,16.88
2023-05-13T05:58:56.089Z,16.73
2023-05-13T05:59:56.102Z,16.54
2023-05-13T06:00:56.016Z,16.27
2023-05-13T06:01:56.043Z,16.17
2023-05-13T06:02:56.075Z,16.07
2023-05-13T06:03:56.026Z,16.03
2023-05-13T06:04:55.971Z,16.07
2023-05-13T06:05:55.968Z,16.08
2023-05-13T06:06:55.983Z,16.07
2023-05-13T06:07:55.946Z,16.14
2023-05-13T06:08:55.959Z,16.18
2023-05-13T06:09:55.928Z,16.18
2023-05-13T06:10:55.929Z,16.25
2023-05-13T06:11:55.911Z,16.27
2023-05-13T06:12:55.904Z,16.30
2023-05-13T06:13:55.878Z,16.25
2023-05-13T06:14:55.864Z,16.17
2023-05-13T06:15:55.890Z,16.23
2023-05-13T06:16:56.055Z,16.14
2023-05-13T06:17:55.868Z,16.11
2023-05-13T06:18:55.882Z,16.07
2023-05-13T06:19:55.810Z,15.93
2023-05-13T06:20:55.822Z,15.88
2023-05-13T06:21:55.795Z,15.93
2023-05-13T06:22:55.772Z,16.01
2023-05-13T06:23:55.779Z,16.10
2023-05-13T06:24:55.909Z,16.06
2023-05-13T06:25:55.832Z,16.14
2023-05-13T06:26:55.734Z,16.18
2023-05-13T06:27:55.722Z,16.23
2023-05-13T06:28:55.704Z,16.18
2023-05-13T06:29:55.716Z,16.25
2023-05-13T06:30:55.728Z,16.27
2023-05-13T06:31:55.685Z,16.36
2023-05-13T06:33:01.682Z,16.41
2023-05-13T06:33:56.686Z,16.42
2023-05-13T06:34:56.124Z,16.55
2023-05-13T06:35:55.632Z,16.63
2023-05-13T06:36:55.643Z,16.73
2023-05-13T06:37:55.658Z,16.87
2023-05-13T06:38:55.592Z,17.03
2023-05-13T06:39:55.584Z,17.27
2023-05-13T06:40:55.595Z,17.47
2023-05-13T06:41:55.571Z,17.68
2023-05-13T06:42:55.546Z,17.73
2023-05-13T06:43:55.544Z,17.96
2023-05-13T06:44:55.525Z,18.07
2023-05-13T06:45:55.552Z,18.17
2023-05-13T06:46:55.584Z,18.25
2023-05-13T06:47:55.519Z,18.42
2023-05-13T06:48:55.517Z,18.62
2023-05-13T06:49:55.578Z,18.75
2023-05-13T06:50:55.464Z,18.74
2023-05-13T06:51:55.446Z,18.99
2023-05-13T06:52:55.432Z,19.30
2023-05-13T06:53:55.433Z,19.31
2023-05-13T06:54:55.412Z,19.39
2023-05-13T06:55:55.401Z,19.28
2023-05-13T06:56:55.415Z,19.23
2023-05-13T06:57:55.390Z,19.20
2023-05-13T06:58:55.464Z,19.25
2023-05-13T06:59:55.362Z,19.23
2023-05-13T07:00:55.363Z,19.21
2023-05-13T07:01:55.339Z,19.35
2023-05-13T07:02:55.363Z,19.61
2023-05-13T07:03:55.384Z,19.83
2023-05-13T07:04:55.335Z,20.05
2023-05-13T07:05:55.291Z,20.19
2023-05-13T07:06:55.294Z,20.12
2023-05-13T07:07:55.283Z,20.20
2023-05-13T07:08:55.309Z,20.35
2023-05-13T07:09:55.257Z,20.60
2023-05-13T07:10:55.234Z,20.94
2023-05-13T07:11:55.223Z,21.11
2023-05-13T07:12:55.241Z,20.98
2023-05-13T07:13:55.198Z,21.03
2023-05-13T07:14:55.196Z,20.98
2023-05-13T07:15:55.180Z,21.21
2023-05-13T07:16:55.214Z,21.30
2023-05-13T07:17:55.194Z,21.36
2023-05-13T07:18:55.210Z,21.36
2023-05-13T07:19:55.176Z,21.48
2023-05-13T07:20:55.133Z,21.46
2023-05-13T07:21:55.189Z,21.63
2023-05-13T07:22:55.108Z,21.81
2023-05-13T07:23:55.103Z,21.83
2023-05-13T07:24:55.092Z,22.12
2023-05-13T07:25:55.085Z,22.30
2023-05-13T07:26:55.057Z,22.26
2023-05-13T07:27:55.163Z,22.51
2023-05-13T07:28:55.120Z,22.41
2023-05-13T07:29:55.216Z,22.39
2023-05-13T07:30:55.110Z,22.45
2023-05-13T07:31:55.196Z,22.21
2023-05-13T07:32:55.187Z,22.01
2023-05-13T07:33:55.103Z,22.02
2023-05-13T07:34:55.061Z,22.11
2023-05-13T07:35:54.980Z,22.30
2023-05-13T07:36:54.944Z,22.44
2023-05-13T07:37:54.955Z,22.59
2023-05-13T07:38:55.362Z,22.57
2023-05-13T07:39:54.948Z,22.36
2023-05-13T07:40:54.926Z,22.30
2023-05-13T07:41:54.901Z,22.48
2023-05-13T07:42:54.894Z,22.51
2023-05-13T07:43:54.876Z,22.44
2023-05-13T07:44:54.883Z,22.41
2023-05-13T07:45:54.852Z,22.54
2023-05-13T07:46:54.905Z,22.61
2023-05-13T07:47:55.076Z,23.00
2023-05-13T07:48:54.866Z,23.14
2023-05-13T07:49:54.834Z,23.50
2023-05-13T07:50:54.798Z,23.84
2023-05-13T07:51:54.835Z,24.02
2023-05-13T07:52:54.781Z,24.27
2023-05-13T07:53:54.768Z,23.71
2023-05-13T07:54:54.761Z,23.49
2023-05-13T07:55:54.749Z,23.38
2023-05-13T07:56:54.734Z,23.16
2023-05-13T07:57:54.829Z,23.54
2023-05-13T07:58:54.717Z,23.82
2023-05-13T07:59:54.740Z,24.24
2023-05-13T08:00:54.735Z,24.48
2023-05-13T08:01:54.690Z,24.51
2023-05-13T08:02:54.733Z,24.41
2023-05-13T08:03:54.919Z,24.36
2023-05-13T08:04:54.717Z,24.59
2023-05-13T08:05:54.642Z,24.92
2023-05-13T08:06:54.634Z,25.22
2023-05-13T08:07:54.617Z,25.41
2023-05-13T08:08:54.615Z,24.89
2023-05-13T08:09:54.608Z,24.94
2023-05-13T08:10:54.602Z,24.93
2023-05-13T08:11:54.611Z,24.89
2023-05-13T08:12:54.571Z,24.99
2023-05-13T08:13:54.582Z,25.16
2023-05-13T08:14:54.548Z,25.19
2023-05-13T08:15:54.544Z,25.23
2023-05-13T08:16:54.888Z,25.34
2023-05-13T08:17:54.619Z,25.26
2023-05-13T08:18:54.549Z,25.51
2023-05-13T08:19:54.493Z,25.78
2023-05-13T08:20:54.476Z,25.71
2023-05-13T08:21:54.584Z,25.91
2023-05-13T08:22:54.484Z,25.86
2023-05-13T08:23:54.447Z,25.61
2023-05-13T08:24:54.452Z,25.54
2023-05-13T08:25:54.427Z,25.94
2023-05-13T08:26:54.425Z,26.19
2023-05-13T08:27:54.405Z,26.27
2023-05-13T08:28:55.141Z,26.38
2023-05-13T08:29:54.388Z,26.27
2023-05-13T08:30:54.375Z,25.93
2023-05-13T08:31:54.381Z,25.69
2023-05-13T08:32:54.440Z,25.57
2023-05-13T08:33:54.351Z,25.42
2023-05-13T08:34:54.350Z,25.54
2023-05-13T08:35:54.332Z,26.08
2023-05-13T08:36:54.316Z,26.13
2023-05-13T08:37:54.307Z,26.01
2023-05-13T08:38:54.301Z,26.13
2023-05-13T08:39:54.290Z,25.79
2023-05-13T08:40:54.297Z,25.98
2023-05-13T08:41:54.265Z,26.24
2023-05-13T08:42:54.542Z,25.89
2023-05-13T08:43:54.267Z,25.72
2023-05-13T08:44:54.233Z,25.76
2023-05-13T08:45:54.233Z,25.81
2023-05-13T08:46:54.212Z,25.96
2023-05-13T08:47:54.229Z,26.09
2023-05-13T08:48:54.217Z,25.98
2023-05-13T08:49:54.187Z,26.12
2023-05-13T08:50:54.191Z,26.19
2023-05-13T08:51:54.164Z,26.17
2023-05-13T08:52:54.184Z,26.46
2023-05-13T08:53:54.176Z,26.90
2023-05-13T08:54:54.131Z,27.11
2023-05-13T08:55:54.129Z,27.08
2023-05-13T08:56:54.108Z,27.42
2023-05-13T08:57:54.104Z,27.66
2023-05-13T08:58:54.084Z,27.71
2023-05-13T08:59:54.081Z,27.77
2023-05-13T09:00:54.162Z,27.46
2023-05-13T09:01:54.100Z,27.66
2023-05-13T09:02:54.069Z,27.52
2023-05-13T09:03:54.048Z,27.96
2023-05-13T09:04:54.129Z,27.98
2023-05-13T09:05:54.146Z,28.23
2023-05-13T09:06:54.012Z,28.32
2023-05-13T09:07:54.002Z,27.52
2023-05-13T09:08:53.982Z,27.18
2023-05-13T09:09:53.981Z,27.20
2023-05-13T09:10:53.965Z,26.91
2023-05-13T09:11:53.960Z,26.76
2023-05-13T09:12:53.956Z,27.05
2023-05-13T09:13:54.264Z,27.06
2023-05-13T09:14:53.939Z,27.45
2023-05-13T09:15:53.947Z,27.24
2023-05-13T09:16:53.903Z,27.27
2023-05-13T09:17:54.101Z,27.43
2023-05-13T09:18:54.019Z,27.21
2023-05-13T09:19:53.917Z,26.98
2023-05-13T09:20:53.906Z,27.01
2023-05-13T09:21:53.873Z,27.35
2023-05-13T09:22:53.853Z,27.66
2023-05-13T09:23:53.830Z,27.74
2023-05-13T09:24:53.839Z,27.98
2023-05-13T09:25:53.821Z,28.06
2023-05-13T09:26:53.800Z,27.93
2023-05-13T09:27:53.790Z,27.78
2023-05-13T09:28:53.774Z,28.08
2023-05-13T09:29:53.787Z,27.96
2023-05-13T09:30:53.824Z,27.69
2023-05-13T09:31:53.761Z,27.87
2023-05-13T09:32:53.775Z,28.01
2023-05-13T09:33:53.728Z,27.78
2023-05-13T09:34:53.713Z,27.90
2023-05-13T09:35:53.848Z,28.50
2023-05-13T09:36:53.724Z,28.82
2023-05-13T09:37:53.690Z,29.03
2023-05-13T09:38:53.670Z,29.17
2023-05-13T09:39:53.664Z,28.55
2023-05-13T09:40:53.645Z,28.40
2023-05-13T09:41:53.647Z,28.27
2023-05-13T09:42:53.626Z,28.09
2023-05-13T09:43:53.616Z,27.69
2023-05-13T09:44:53.614Z,27.83
2023-05-13T09:45:53.598Z,28.35
2023-05-13T09:46:53.601Z,28.97
2023-05-13T09:47:53.667Z,28.97
2023-05-13T09:48:55.763Z,28.60
2023-05-13T09:49:53.564Z,28.98
2023-05-13T09:50:53.750Z,28.91
2023-05-13T09:51:53.545Z,29.15
2023-05-13T09:52:53.839Z,29.63
2023-05-13T09:53:53.516Z,29.32
2023-05-13T09:54:53.511Z,29.41
2023-05-13T09:55:53.506Z,29.45
2023-05-13T09:56:53.488Z,29.29
2023-05-13T09:57:53.481Z,29.18
2023-05-13T09:58:53.567Z,28.72
2023-05-13T09:59:53.460Z,28.88
2023-05-13T10:00:53.536Z,29.05
2023-05-13T10:01:53.576Z,29.30
2023-05-13T10:02:53.556Z,29.10
2023-05-13T10:03:53.467Z,29.12
2023-05-13T10:04:53.576Z,29.63
2023-05-13T10:05:53.403Z,29.54
2023-05-13T10:06:53.394Z,29.52
2023-05-13T10:07:53.388Z,29.27
2023-05-13T10:08:53.403Z,28.76
2023-05-13T10:09:53.372Z,29.21
2023-05-13T10:10:53.361Z,29.33
2023-05-13T10:11:53.349Z,29.33
2023-05-13T10:12:53.478Z,29.21
2023-05-13T10:13:53.343Z,29.42
2023-05-13T10:14:53.417Z,29.39
2023-05-13T10:15:53.428Z,29.71
2023-05-13T10:16:53.347Z,29.44
2023-05-13T10:17:53.552Z,29.20
2023-05-13T10:18:53.685Z,29.74
2023-05-13T10:19:53.568Z,30.23
2023-05-13T10:20:54.086Z,30.44
2023-05-13T11:00:05.377Z,-39.99
2023-05-13T11:01:05.382Z,-39.99
2023-05-13T11:02:05.189Z,-39.99
2023-05-13T11:03:05.176Z,-39.99
2023-05-13T11:04:05.283Z,-39.99
2023-05-13T11:05:05.107Z,-39.99
2023-05-13T11:06:05.120Z,-39.99
2023-05-13T11:07:05.177Z,-39.99
2023-05-13T11:08:05.139Z,-39.99
2023-05-13T11:09:05.070Z,-39.99
2023-05-13T11:10:05.206Z,-39.99
2023-05-13T11:11:05.041Z,-39.99
2023-05-13T11:12:05.035Z,-39.99
2023-05-13T11:13:05.177Z,-39.99
2023-05-13T11:14:06.590Z,-39.99
2023-05-13T11:15:05.203Z,-39.99
2023-05-13T11:16:05.068Z,-39.99
2023-05-13T11:17:05.003Z,-39.99
2023-05-13T11:18:05.003Z,-39.99
2023-05-13T11:19:05.049Z,-39.99
2023-05-13T11:20:04.951Z,-39.99
2023-05-13T11:21:05.530Z,-39.99
2023-05-13T11:22:04.942Z,-39.99
2023-05-13T11:23:04.919Z,-39.99
2023-05-13T11:24:04.908Z,-39.99
2023-05-13T11:25:04.898Z,-39.99
2023-05-13T11:26:04.887Z,-39.99
2023-05-13T11:27:04.875Z,-39.99
2023-05-13T11:28:04.865Z,-39.99
2023-05-13T11:29:04.860Z,-39.99
2023-05-13T11:30:04.857Z,-39.99
2023-05-13T11:31:04.864Z,-39.99
2023-05-13T11:32:04.863Z,-39.99
2023-05-13T11:33:04.881Z,-39.99
2023-05-13T11:34:04.804Z,-39.99
2023-05-13T11:35:04.794Z,-39.99
2023-05-13T11:36:04.783Z,-39.99
2023-05-13T11:37:04.772Z,-39.99
2023-05-13T11:38:04.760Z,-39.99
2023-05-13T11:39:04.751Z,-39.99
2023-05-13T11:40:04.737Z,-39.99
2023-05-13T11:41:04.834Z,-39.99
2023-05-13T11:42:04.717Z,-39.99
2023-05-13T11:43:04.712Z,-39.99
2023-05-13T11:44:04.696Z,-39.99
2023-05-13T11:45:04.687Z,-39.99
2023-05-13T11:46:04.788Z,-39.99
2023-05-13T11:47:04.667Z,-39.99
2023-05-13T11:48:04.748Z,-39.99
2023-05-13T11:49:07.152Z,-39.99
2023-05-13T11:50:04.791Z,-39.99
2023-05-13T11:51:04.633Z,-39.99
2023-05-13T11:52:04.619Z,-39.99
2023-05-13T11:53:04.608Z,-39.99
2023-05-13T11:54:04.592Z,-39.99
2023-05-13T11:55:06.370Z,-39.99
2023-05-13T11:56:04.578Z,-39.99
2023-05-13T11:57:04.568Z,-39.99
2023-05-13T11:58:04.559Z,-39.99
2023-05-13T11:59:04.543Z,-39.99
2023-05-13T12:00:04.532Z,-39.99
2023-05-13T12:01:04.523Z,-39.99
2023-05-13T12:02:04.637Z,-39.99
2023-05-13T12:03:04.659Z,-39.99
2023-05-13T12:04:04.512Z,-39.99
2023-05-13T12:05:04.557Z,-39.99
2023-05-13T12:06:04.471Z,-39.99
2023-05-13T12:07:04.463Z,-39.99
2023-05-13T12:08:04.446Z,-39.99
2023-05-13T12:09:04.460Z,-39.99
2023-05-13T12:10:04.431Z,-39.99
2023-05-13T12:11:04.417Z,-39.99
2023-05-13T12:12:04.403Z,-39.99
2023-05-13T12:13:04.408Z,-39.99
2023-05-13T12:14:04.405Z,-39.99
2023-05-13T12:15:04.382Z,-39.99
2023-05-13T12:16:04.478Z,-39.99
2023-05-13T12:17:04.354Z,-39.99
2023-05-13T12:18:04.378Z,-39.99
2023-05-13T12:19:04.357Z,-39.99
2023-05-13T12:20:05.344Z,-39.99
2023-05-13T12:21:04.319Z,-39.99
2023-05-13T12:22:05.582Z,-39.99
2023-05-13T12:23:04.295Z,-39.99
2023-05-13T12:24:04.276Z,-39.99
2023-05-13T12:25:04.280Z,-39.99
2023-05-13T12:26:04.270Z,-39.99
2023-05-13T12:27:04.248Z,-39.99
2023-05-13T12:28:04.235Z,-39.99
2023-05-13T12:29:04.226Z,-39.99
2023-05-13T12:30:04.215Z,-39.99
2023-05-13T12:31:04.236Z,-39.99
2023-05-13T12:32:04.187Z,-39.99
2023-05-13T12:33:04.220Z,-40.00
2023-05-13T12:34:04.167Z,-39.99
2023-05-13T12:35:04.179Z,-39.99
2023-05-13T12:36:04.181Z,-39.99
2023-05-13T12:37:04.213Z,-39.99
2023-05-13T12:38:04.138Z,-39.99
2023-05-13T12:39:04.114Z,-39.99
2023-05-13T12:40:04.108Z,-39.99
2023-05-13T12:41:04.096Z,-39.99
2023-05-13T12:42:04.081Z,-39.99
2023-05-13T12:43:04.071Z,-39.99
2023-05-13T12:44:06.768Z,-39.99
2023-05-13T12:45:04.054Z,-39.99
2023-05-13T12:46:04.043Z,-39.99
2023-05-13T12:47:04.117Z,-39.99
2023-05-13T12:48:04.106Z,-39.99
2023-05-13T12:49:04.011Z,-39.99
2023-05-13T12:50:03.998Z,-39.99
2023-05-13T12:51:03.985Z,-39.99
2023-05-13T12:52:04.015Z,-39.99
2023-05-13T12:53:03.962Z,-39.99
2023-05-13T12:54:03.950Z,-39.99
2023-05-13T12:55:03.939Z,-39.99
2023-05-13T12:56:03.930Z,-39.99
2023-05-13T12:57:03.918Z,-39.99
2023-05-13T12:58:03.984Z,-39.99
2023-05-13T12:59:03.919Z,-39.99
2023-05-13T13:00:03.900Z,-39.99
2023-05-13T13:01:03.928Z,-39.99
2023-05-13T13:02:03.864Z,-39.99
2023-05-13T13:03:03.940Z,-39.99
2023-05-13T13:04:03.960Z,-39.99
2023-05-13T13:05:03.832Z,-39.99
2023-05-13T13:06:03.818Z,-39.99
2023-05-13T13:07:03.813Z,-39.99
2023-05-13T13:08:03.820Z,-39.99
2023-05-13T13:09:03.794Z,-39.99
2023-05-13T13:10:03.795Z,-39.99
2023-05-13T13:11:03.799Z,-39.99
2023-05-13T13:12:03.765Z,-39.99
2023-05-13T13:13:03.752Z,-39.99
2023-05-13T13:14:03.738Z,-39.99
2023-05-13T13:15:03.726Z,-39.99
2023-05-13T13:16:03.789Z,-39.99
2023-05-13T13:17:03.706Z,-39.99
2023-05-13T13:18:03.730Z,-39.99
2023-05-13T13:19:03.752Z,-39.99
2023-05-13T13:20:03.670Z,-39.99
2023-05-13T13:21:03.666Z,-39.99
2023-05-13T13:22:03.674Z,-39.99
2023-05-13T13:23:03.677Z,-39.99
2023-05-13T13:24:03.712Z,-39.99
2023-05-13T13:25:03.623Z,-39.99